This is the latest recevied weather packets stored in our database for station/object DH1FR-13. If no packets are shown the sender has not sent any weather packets the latest 10 day(s).
| Time | Temp. | Humidity | Pressure | Rain* | Wind** | Luminosity | Snow |
|---|---|---|---|---|---|---|---|
| 1777430401 | 5.56° C | 62% | 1027.1 hPa | 0 mm | 0 m/s | - | - |
| 1777429801 | 5.56° C | 62% | 1027.3 hPa | 0 mm | 0 m/s | - | - |
| 1777429201 | 5.56° C | 62% | 1026.6 hPa | 0 mm | 0 m/s | - | - |
| 1777428601 | 5.56° C | 61% | 1026.9 hPa | 0 mm | 0 m/s | - | - |
| 1777428001 | 5.56° C | 61% | 1027.1 hPa | 0 mm | 0 m/s | - | - |
| 1777427401 | 5.56° C | 61% | 1026.8 hPa | 0 mm | 0 m/s | - | - |
| 1777426800 | 5.56° C | 61% | 1027 hPa | 0 mm | 0 m/s | - | - |
| 1777426201 | 5.56° C | 61% | 1026.9 hPa | 0 mm | 0 m/s | - | - |
| 1777425601 | 5.56° C | 60% | 1027 hPa | 0 mm | 0 m/s | - | - |
| 1777425001 | 5.56° C | 61% | 1026.8 hPa | 0 mm | 0 m/s | - | - |
| 1777424401 | 5.56° C | 60% | 1026.9 hPa | 0 mm | 0 m/s | - | - |
| 1777423801 | 5.56° C | 61% | 1026.8 hPa | 0 mm | 0 m/s | - | - |
| 1777423201 | 5° C | 63% | 1026.9 hPa | 0 mm | 0 m/s | - | - |
| 1777422601 | 5° C | 64% | 1026.7 hPa | 0 mm | 0 m/s | - | - |
| 1777422001 | 5.56° C | 62% | 1026.9 hPa | 0 mm | 0 m/s | - | - |
| 1777421401 | 6.11° C | 59% | 1026.9 hPa | 0 mm | 0 m/s | - | - |
| 1777420801 | 6.67° C | 57% | 1026.9 hPa | 0 mm | 0 m/s | - | - |
| 1777420201 | 6.67° C | 56% | 1026.8 hPa | 0 mm | 0 m/s | - | - |
| 1777419601 | 7.22° C | 55% | 1027 hPa | 0 mm | 0 m/s | - | - |
| 1777419001 | 7.22° C | 55% | 1026.9 hPa | 0 mm | 0 m/s | - | - |
| 1777418401 | 7.22° C | 55% | 1026.8 hPa | 0 mm | 0 m/s | - | - |
| 1777417801 | 7.22° C | 55% | 1026.8 hPa | 0 mm | 0 m/s | - | - |
| 1777417201 | 7.78° C | 55% | 1027 hPa | 0 mm | 0 m/s | - | - |
| 1777416601 | 7.78° C | 55% | 1026.9 hPa | 0 mm | 0 m/s | - | - |
| 1777416001 | 7.78° C | 55% | 1026.8 hPa | 0 mm | 0 m/s | - | - |
* Rain latest hour (hover to see other rain measurements)
** Current wind speed in m/s (hover to see current wind gust speed)